sensor_id;sensor_type;location;lat;lon;timestamp;temperature;humidity
11067;DHT22;29763;50.904;5.530;2023-10-09T00:00:14;14.40;99.90
11067;DHT22;29763;50.904;5.530;2023-10-09T00:03:00;14.40;99.90
11067;DHT22;29763;50.904;5.530;2023-10-09T00:05:33;14.20;99.90
11067;DHT22;29763;50.904;5.530;2023-10-09T00:08:11;14.10;99.90
11067;DHT22;29763;50.904;5.530;2023-10-09T00:10:59;14.00;99.90
11067;DHT22;29763;50.904;5.530;2023-10-09T00:13:39;14.10;99.90
11067;DHT22;29763;50.904;5.530;2023-10-09T00:16:20;14.10;99.90
11067;DHT22;29763;50.904;5.530;2023-10-09T00:19:08;14.00;99.90
11067;DHT22;29763;50.904;5.530;2023-10-09T00:21:51;14.00;99.90
11067;DHT22;29763;50.904;5.530;2023-10-09T00:24:20;14.00;99.90
11067;DHT22;29763;50.904;5.530;2023-10-09T00:26:50;14.10;99.90
11067;DHT22;29763;50.904;5.530;2023-10-09T00:29:18;14.10;99.90
11067;DHT22;29763;50.904;5.530;2023-10-09T00:32:00;14.10;99.90
11067;DHT22;29763;50.904;5.530;2023-10-09T00:34:33;14.10;99.90
11067;DHT22;29763;50.904;5.530;2023-10-09T00:37:06;14.10;99.90
11067;DHT22;29763;50.904;5.530;2023-10-09T00:39:36;14.00;99.90
11067;DHT22;29763;50.904;5.530;2023-10-09T00:42:02;14.10;99.90
11067;DHT22;29763;50.904;5.530;2023-10-09T00:44:31;14.00;99.90
11067;DHT22;29763;50.904;5.530;2023-10-09T00:47:08;14.00;99.90
11067;DHT22;29763;50.904;5.530;2023-10-09T00:49:57;14.00;99.90
11067;DHT22;29763;50.904;5.530;2023-10-09T00:52:33;13.90;99.90
11067;DHT22;29763;50.904;5.530;2023-10-09T00:55:10;14.00;99.90
11067;DHT22;29763;50.904;5.530;2023-10-09T00:57:45;14.00;99.90
11067;DHT22;29763;50.904;5.530;2023-10-09T01:00:38;14.00;99.90
11067;DHT22;29763;50.904;5.530;2023-10-09T01:03:10;14.00;99.90
11067;DHT22;29763;50.904;5.530;2023-10-09T01:05:58;14.00;99.90
11067;DHT22;29763;50.904;5.530;2023-10-09T01:08:34;14.00;99.90
11067;DHT22;29763;50.904;5.530;2023-10-09T01:11:07;13.90;99.90
11067;DHT22;29763;50.904;5.530;2023-10-09T01:13:40;13.90;99.90
11067;DHT22;29763;50.904;5.530;2023-10-09T01:16:26;14.10;99.90
11067;DHT22;29763;50.904;5.530;2023-10-09T01:18:56;14.10;99.90
11067;DHT22;29763;50.904;5.530;2023-10-09T01:21:24;14.20;99.90
11067;DHT22;29763;50.904;5.530;2023-10-09T01:23:52;14.20;99.90
11067;DHT22;29763;50.904;5.530;2023-10-09T01:26:44;14.30;99.90
11067;DHT22;29763;50.904;5.530;2023-10-09T01:29:17;14.30;99.90
11067;DHT22;29763;50.904;5.530;2023-10-09T01:34:18;14.30;99.90
11067;DHT22;29763;50.904;5.530;2023-10-09T01:36:44;14.40;99.90
11067;DHT22;29763;50.904;5.530;2023-10-09T01:39:14;14.50;99.90
11067;DHT22;29763;50.904;5.530;2023-10-09T01:41:54;14.50;99.90
11067;DHT22;29763;50.904;5.530;2023-10-09T01:44:25;14.50;99.90
11067;DHT22;29763;50.904;5.530;2023-10-09T01:47:04;14.60;99.90
11067;DHT22;29763;50.904;5.530;2023-10-09T01:49:37;14.70;99.90
11067;DHT22;29763;50.904;5.530;2023-10-09T01:52:07;14.60;99.90
11067;DHT22;29763;50.904;5.530;2023-10-09T01:54:41;14.70;99.90
11067;DHT22;29763;50.904;5.530;2023-10-09T01:57:11;14.70;99.90
11067;DHT22;29763;50.904;5.530;2023-10-09T01:59:42;14.70;99.90
11067;DHT22;29763;50.904;5.530;2023-10-09T02:02:29;14.70;99.90
11067;DHT22;29763;50.904;5.530;2023-10-09T02:05:03;14.70;99.90
11067;DHT22;29763;50.904;5.530;2023-10-09T02:07:51;14.70;99.90
11067;DHT22;29763;50.904;5.530;2023-10-09T02:10:24;14.80;99.90
11067;DHT22;29763;50.904;5.530;2023-10-09T02:12:50;14.90;99.90
11067;DHT22;29763;50.904;5.530;2023-10-09T02:15:23;14.90;99.90
11067;DHT22;29763;50.904;5.530;2023-10-09T02:23:38;15.00;99.90
11067;DHT22;29763;50.904;5.530;2023-10-09T02:26:18;15.10;99.90
11067;DHT22;29763;50.904;5.530;2023-10-09T02:28:53;15.10;99.90
11067;DHT22;29763;50.904;5.530;2023-10-09T02:31:29;15.10;99.90
11067;DHT22;29763;50.904;5.530;2023-10-09T02:34:09;15.10;99.90
11067;DHT22;29763;50.904;5.530;2023-10-09T02:36:37;15.10;99.90
11067;DHT22;29763;50.904;5.530;2023-10-09T02:39:06;15.10;99.90
11067;DHT22;29763;50.904;5.530;2023-10-09T02:41:37;15.10;99.90
11067;DHT22;29763;50.904;5.530;2023-10-09T02:44:10;15.10;99.90
11067;DHT22;29763;50.904;5.530;2023-10-09T02:46:36;15.20;99.90
11067;DHT22;29763;50.904;5.530;2023-10-09T02:49:06;15.20;99.90
11067;DHT22;29763;50.904;5.530;2023-10-09T02:51:31;15.30;99.90
11067;DHT22;29763;50.904;5.530;2023-10-09T02:54:01;15.30;99.90
11067;DHT22;29763;50.904;5.530;2023-10-09T02:56:35;15.30;99.90
11067;DHT22;29763;50.904;5.530;2023-10-09T02:59:09;15.30;99.90
11067;DHT22;29763;50.904;5.530;2023-10-09T03:01:36;15.30;99.90
11067;DHT22;29763;50.904;5.530;2023-10-09T03:04:03;15.30;99.90
11067;DHT22;29763;50.904;5.530;2023-10-09T03:06:34;15.30;99.90
11067;DHT22;29763;50.904;5.530;2023-10-09T03:09:05;15.30;99.90
11067;DHT22;29763;50.904;5.530;2023-10-09T03:11:47;15.30;99.90
11067;DHT22;29763;50.904;5.530;2023-10-09T03:14:22;15.30;99.90
11067;DHT22;29763;50.904;5.530;2023-10-09T03:16:55;15.30;99.90
11067;DHT22;29763;50.904;5.530;2023-10-09T03:19:31;15.30;99.90
11067;DHT22;29763;50.904;5.530;2023-10-09T03:22:08;15.30;99.90
11067;DHT22;29763;50.904;5.530;2023-10-09T03:24:38;15.30;99.90
11067;DHT22;29763;50.904;5.530;2023-10-09T03:27:05;15.20;99.90
11067;DHT22;29763;50.904;5.530;2023-10-09T03:29:30;15.20;99.90
11067;DHT22;29763;50.904;5.530;2023-10-09T03:31:57;15.20;99.90
11067;DHT22;29763;50.904;5.530;2023-10-09T03:34:25;15.20;99.90
11067;DHT22;29763;50.904;5.530;2023-10-09T03:36:51;15.20;99.90
11067;DHT22;29763;50.904;5.530;2023-10-09T03:39:30;15.20;99.90
11067;DHT22;29763;50.904;5.530;2023-10-09T03:42:02;15.20;99.90
11067;DHT22;29763;50.904;5.530;2023-10-09T03:44:31;15.20;99.90
11067;DHT22;29763;50.904;5.530;2023-10-09T03:47:01;15.20;99.90
11067;DHT22;29763;50.904;5.530;2023-10-09T03:49:27;15.20;99.90
11067;DHT22;29763;50.904;5.530;2023-10-09T03:51:55;15.20;99.90
11067;DHT22;29763;50.904;5.530;2023-10-09T03:54:21;15.20;99.90
11067;DHT22;29763;50.904;5.530;2023-10-09T03:56:48;15.20;99.90
11067;DHT22;29763;50.904;5.530;2023-10-09T03:59:20;15.20;99.90
11067;DHT22;29763;50.904;5.530;2023-10-09T04:01:47;15.20;99.90
11067;DHT22;29763;50.904;5.530;2023-10-09T04:04:16;15.20;99.90
11067;DHT22;29763;50.904;5.530;2023-10-09T04:06:43;15.20;99.90
11067;DHT22;29763;50.904;5.530;2023-10-09T04:09:11;15.20;99.90
11067;DHT22;29763;50.904;5.530;2023-10-09T04:11:46;15.20;99.90
11067;DHT22;29763;50.904;5.530;2023-10-09T04:14:13;15.30;99.90
11067;DHT22;29763;50.904;5.530;2023-10-09T04:16:58;15.20;99.90
11067;DHT22;29763;50.904;5.530;2023-10-09T04:19:52;15.30;99.90
11067;DHT22;29763;50.904;5.530;2023-10-09T04:22:37;15.30;99.90
11067;DHT22;29763;50.904;5.530;2023-10-09T04:25:22;15.30;99.90
11067;DHT22;29763;50.904;5.530;2023-10-09T04:27:59;15.30;99.90
11067;DHT22;29763;50.904;5.530;2023-10-09T04:30:43;15.30;99.90
11067;DHT22;29763;50.904;5.530;2023-10-09T04:33:09;15.30;99.90
11067;DHT22;29763;50.904;5.530;2023-10-09T04:36:04;15.30;99.90
11067;DHT22;29763;50.904;5.530;2023-10-09T04:38:54;15.30;99.90
11067;DHT22;29763;50.904;5.530;2023-10-09T04:41:30;15.40;99.90
11067;DHT22;29763;50.904;5.530;2023-10-09T04:44:15;15.40;99.90
11067;DHT22;29763;50.904;5.530;2023-10-09T04:46:44;15.40;99.90
11067;DHT22;29763;50.904;5.530;2023-10-09T04:49:10;15.40;99.90
11067;DHT22;29763;50.904;5.530;2023-10-09T04:51:54;15.30;99.90
11067;DHT22;29763;50.904;5.530;2023-10-09T04:54:44;15.30;99.90
11067;DHT22;29763;50.904;5.530;2023-10-09T04:57:46;15.30;99.90
11067;DHT22;29763;50.904;5.530;2023-10-09T05:00:15;15.30;99.90
11067;DHT22;29763;50.904;5.530;2023-10-09T05:02:56;15.30;99.90
11067;DHT22;29763;50.904;5.530;2023-10-09T05:05:31;15.40;99.90
11067;DHT22;29763;50.904;5.530;2023-10-09T05:08:14;15.30;99.90
11067;DHT22;29763;50.904;5.530;2023-10-09T05:10:43;15.40;99.90
11067;DHT22;29763;50.904;5.530;2023-10-09T05:13:36;15.50;99.90
11067;DHT22;29763;50.904;5.530;2023-10-09T05:16:15;15.60;99.90
11067;DHT22;29763;50.904;5.530;2023-10-09T05:18:47;15.70;99.90
11067;DHT22;29763;50.904;5.530;2023-10-09T05:21:29;15.70;99.90
11067;DHT22;29763;50.904;5.530;2023-10-09T05:24:03;15.70;99.90
11067;DHT22;29763;50.904;5.530;2023-10-09T05:26:49;15.70;99.90
11067;DHT22;29763;50.904;5.530;2023-10-09T05:29:16;15.70;99.90
11067;DHT22;29763;50.904;5.530;2023-10-09T05:31:52;15.70;99.90
11067;DHT22;29763;50.904;5.530;2023-10-09T05:34:23;15.70;99.90
11067;DHT22;29763;50.904;5.530;2023-10-09T05:37:03;15.80;99.90
11067;DHT22;29763;50.904;5.530;2023-10-09T05:39:48;15.70;99.90
11067;DHT22;29763;50.904;5.530;2023-10-09T05:42:32;15.60;99.90
11067;DHT22;29763;50.904;5.530;2023-10-09T05:45:08;15.50;99.90
11067;DHT22;29763;50.904;5.530;2023-10-09T05:48:01;15.40;99.90
11067;DHT22;29763;50.904;5.530;2023-10-09T05:50:52;15.30;99.90
11067;DHT22;29763;50.904;5.530;2023-10-09T05:53:39;15.20;99.90
11067;DHT22;29763;50.904;5.530;2023-10-09T05:56:11;15.10;99.90
11067;DHT22;29763;50.904;5.530;2023-10-09T05:58:56;15.10;99.90
11067;DHT22;29763;50.904;5.530;2023-10-09T06:01:40;15.00;99.90
11067;DHT22;29763;50.904;5.530;2023-10-09T06:04:24;15.00;99.90
11067;DHT22;29763;50.904;5.530;2023-10-09T06:07:08;15.00;99.90
11067;DHT22;29763;50.904;5.530;2023-10-09T06:09:39;14.90;99.90
11067;DHT22;29763;50.904;5.530;2023-10-09T06:12:19;14.90;99.90
11067;DHT22;29763;50.904;5.530;2023-10-09T06:15:04;15.00;99.90
11067;DHT22;29763;50.904;5.530;2023-10-09T06:17:56;15.00;99.90
11067;DHT22;29763;50.904;5.530;2023-10-09T06:20:42;15.10;99.90
11067;DHT22;29763;50.904;5.530;2023-10-09T06:23:26;15.10;99.90
11067;DHT22;29763;50.904;5.530;2023-10-09T06:26:12;15.20;99.90
11067;DHT22;29763;50.904;5.530;2023-10-09T06:28:51;15.20;99.90
11067;DHT22;29763;50.904;5.530;2023-10-09T06:31:37;15.30;99.90
11067;DHT22;29763;50.904;5.530;2023-10-09T06:34:23;15.30;99.90
11067;DHT22;29763;50.904;5.530;2023-10-09T06:36:59;15.30;99.90
11067;DHT22;29763;50.904;5.530;2023-10-09T06:39:43;15.40;99.90
11067;DHT22;29763;50.904;5.530;2023-10-09T06:42:30;15.40;99.90
11067;DHT22;29763;50.904;5.530;2023-10-09T06:45:02;15.50;99.90
11067;DHT22;29763;50.904;5.530;2023-10-09T06:47:40;15.40;99.90
11067;DHT22;29763;50.904;5.530;2023-10-09T06:50:11;15.50;99.90
11067;DHT22;29763;50.904;5.530;2023-10-09T06:52:46;15.50;99.90
11067;DHT22;29763;50.904;5.530;2023-10-09T06:55:36;15.40;99.90
11067;DHT22;29763;50.904;5.530;2023-10-09T06:58:21;15.50;99.90
11067;DHT22;29763;50.904;5.530;2023-10-09T07:00:54;15.50;99.90
11067;DHT22;29763;50.904;5.530;2023-10-09T07:03:39;15.50;99.90
11067;DHT22;29763;50.904;5.530;2023-10-09T07:06:18;15.50;99.90
11067;DHT22;29763;50.904;5.530;2023-10-09T07:08:54;15.50;99.90
11067;DHT22;29763;50.904;5.530;2023-10-09T07:11:39;15.60;99.90
11067;DHT22;29763;50.904;5.530;2023-10-09T07:14:09;15.60;99.90
11067;DHT22;29763;50.904;5.530;2023-10-09T07:16:57;15.60;99.90
11067;DHT22;29763;50.904;5.530;2023-10-09T07:19:25;15.70;99.90
11067;DHT22;29763;50.904;5.530;2023-10-09T07:22:14;15.80;99.90
11067;DHT22;29763;50.904;5.530;2023-10-09T07:24:46;15.90;99.90
11067;DHT22;29763;50.904;5.530;2023-10-09T07:27:29;15.90;99.90
11067;DHT22;29763;50.904;5.530;2023-10-09T07:30:18;16.00;99.90
11067;DHT22;29763;50.904;5.530;2023-10-09T07:33:03;16.10;99.90
11067;DHT22;29763;50.904;5.530;2023-10-09T07:35:38;16.10;99.90
11067;DHT22;29763;50.904;5.530;2023-10-09T07:41:03;16.10;99.90
11067;DHT22;29763;50.904;5.530;2023-10-09T07:43:37;16.20;99.90
11067;DHT22;29763;50.904;5.530;2023-10-09T07:46:18;16.20;99.90
11067;DHT22;29763;50.904;5.530;2023-10-09T07:48:59;16.30;99.90
11067;DHT22;29763;50.904;5.530;2023-10-09T07:51:35;16.30;99.90
11067;DHT22;29763;50.904;5.530;2023-10-09T07:54:01;16.40;99.90
11067;DHT22;29763;50.904;5.530;2023-10-09T07:59:05;16.60;99.90
11067;DHT22;29763;50.904;5.530;2023-10-09T08:01:40;16.70;99.90
11067;DHT22;29763;50.904;5.530;2023-10-09T08:04:20;16.80;99.90
11067;DHT22;29763;50.904;5.530;2023-10-09T08:07:06;16.90;99.90
11067;DHT22;29763;50.904;5.530;2023-10-09T08:09:33;17.10;99.90
11067;DHT22;29763;50.904;5.530;2023-10-09T08:12:16;17.20;99.90
11067;DHT22;29763;50.904;5.530;2023-10-09T08:15:01;17.50;99.90
11067;DHT22;29763;50.904;5.530;2023-10-09T08:17:53;17.60;99.90
11067;DHT22;29763;50.904;5.530;2023-10-09T08:20:23;17.70;99.90
11067;DHT22;29763;50.904;5.530;2023-10-09T08:22:55;17.70;99.90
11067;DHT22;29763;50.904;5.530;2023-10-09T08:25:22;17.70;99.90
11067;DHT22;29763;50.904;5.530;2023-10-09T08:28:16;17.70;99.90
11067;DHT22;29763;50.904;5.530;2023-10-09T08:31:00;17.70;99.90
11067;DHT22;29763;50.904;5.530;2023-10-09T08:33:30;17.70;99.90
11067;DHT22;29763;50.904;5.530;2023-10-09T08:36:14;17.80;99.90
11067;DHT22;29763;50.904;5.530;2023-10-09T08:38:40;18.00;99.90
11067;DHT22;29763;50.904;5.530;2023-10-09T08:41:11;18.10;99.90
11067;DHT22;29763;50.904;5.530;2023-10-09T08:43:52;18.30;99.90
11067;DHT22;29763;50.904;5.530;2023-10-09T08:46:30;18.40;99.90
11067;DHT22;29763;50.904;5.530;2023-10-09T08:48:58;18.50;99.90
11067;DHT22;29763;50.904;5.530;2023-10-09T08:51:27;18.70;99.90
11067;DHT22;29763;50.904;5.530;2023-10-09T08:53:53;18.80;99.90
11067;DHT22;29763;50.904;5.530;2023-10-09T08:56:20;18.70;99.90
11067;DHT22;29763;50.904;5.530;2023-10-09T08:58:58;18.80;99.90
11067;DHT22;29763;50.904;5.530;2023-10-09T09:01:29;18.80;99.90
11067;DHT22;29763;50.904;5.530;2023-10-09T09:03:57;19.00;99.90
11067;DHT22;29763;50.904;5.530;2023-10-09T09:06:25;19.10;99.90
11067;DHT22;29763;50.904;5.530;2023-10-09T09:08:52;19.30;99.90
11067;DHT22;29763;50.904;5.530;2023-10-09T09:11:26;19.50;99.90
11067;DHT22;29763;50.904;5.530;2023-10-09T09:16:32;20.30;99.90
11067;DHT22;29763;50.904;5.530;2023-10-09T09:19:02;20.70;99.90
11067;DHT22;29763;50.904;5.530;2023-10-09T09:21:48;20.90;99.90
11067;DHT22;29763;50.904;5.530;2023-10-09T09:24:16;21.00;99.90
11067;DHT22;29763;50.904;5.530;2023-10-09T09:27:00;21.00;99.90
11067;DHT22;29763;50.904;5.530;2023-10-09T09:29:40;21.10;99.90
11067;DHT22;29763;50.904;5.530;2023-10-09T09:32:11;21.20;99.90
11067;DHT22;29763;50.904;5.530;2023-10-09T09:34:53;21.50;99.90
11067;DHT22;29763;50.904;5.530;2023-10-09T09:37:32;21.80;99.90
11067;DHT22;29763;50.904;5.530;2023-10-09T09:40:18;22.20;99.90
11067;DHT22;29763;50.904;5.530;2023-10-09T09:42:59;22.50;99.90
11067;DHT22;29763;50.904;5.530;2023-10-09T09:45:47;22.80;99.90
11067;DHT22;29763;50.904;5.530;2023-10-09T09:48:15;23.20;99.90
11067;DHT22;29763;50.904;5.530;2023-10-09T09:50:42;23.40;99.90
11067;DHT22;29763;50.904;5.530;2023-10-09T09:53:12;23.70;99.90
11067;DHT22;29763;50.904;5.530;2023-10-09T09:55:54;23.70;99.90
11067;DHT22;29763;50.904;5.530;2023-10-09T09:58:27;23.70;99.90
11067;DHT22;29763;50.904;5.530;2023-10-09T10:01:09;23.50;99.90
11067;DHT22;29763;50.904;5.530;2023-10-09T10:03:48;23.30;99.90
11067;DHT22;29763;50.904;5.530;2023-10-09T10:06:19;23.30;99.90
11067;DHT22;29763;50.904;5.530;2023-10-09T10:08:48;23.50;99.90
11067;DHT22;29763;50.904;5.530;2023-10-09T10:11:45;23.50;99.90
11067;DHT22;29763;50.904;5.530;2023-10-09T10:14:12;23.60;99.90
11067;DHT22;29763;50.904;5.530;2023-10-09T10:17:00;23.90;99.90
11067;DHT22;29763;50.904;5.530;2023-10-09T10:20:08;24.00;99.90
11067;DHT22;29763;50.904;5.530;2023-10-09T10:22:51;24.00;99.90
11067;DHT22;29763;50.904;5.530;2023-10-09T10:25:43;23.80;99.90
11067;DHT22;29763;50.904;5.530;2023-10-09T10:28:19;23.90;99.90
11067;DHT22;29763;50.904;5.530;2023-10-09T10:31:08;23.80;99.90
11067;DHT22;29763;50.904;5.530;2023-10-09T10:36:22;23.90;99.90
11067;DHT22;29763;50.904;5.530;2023-10-09T10:39:00;23.80;99.90
11067;DHT22;29763;50.904;5.530;2023-10-09T10:41:56;23.80;99.90
11067;DHT22;29763;50.904;5.530;2023-10-09T10:44:33;23.70;99.90
11067;DHT22;29763;50.904;5.530;2023-10-09T10:47:12;23.50;99.90
11067;DHT22;29763;50.904;5.530;2023-10-09T10:49:54;23.50;99.90
11067;DHT22;29763;50.904;5.530;2023-10-09T10:52:27;23.50;99.90
11067;DHT22;29763;50.904;5.530;2023-10-09T10:55:12;23.50;99.90
11067;DHT22;29763;50.904;5.530;2023-10-09T10:57:56;23.50;99.90
11067;DHT22;29763;50.904;5.530;2023-10-09T11:00:39;23.30;99.90
11067;DHT22;29763;50.904;5.530;2023-10-09T11:03:24;23.30;99.90
11067;DHT22;29763;50.904;5.530;2023-10-09T11:06:30;23.30;99.90
11067;DHT22;29763;50.904;5.530;2023-10-09T11:09:10;23.20;99.90
11067;DHT22;29763;50.904;5.530;2023-10-09T11:11:50;23.30;99.90
11067;DHT22;29763;50.904;5.530;2023-10-09T11:14:26;23.20;99.90
11067;DHT22;29763;50.904;5.530;2023-10-09T11:16:52;23.10;99.90
11067;DHT22;29763;50.904;5.530;2023-10-09T11:19:28;23.00;99.90
11067;DHT22;29763;50.904;5.530;2023-10-09T11:22:00;23.10;99.90
11067;DHT22;29763;50.904;5.530;2023-10-09T11:24:29;23.20;99.90
11067;DHT22;29763;50.904;5.530;2023-10-09T11:27:02;23.20;99.90
11067;DHT22;29763;50.904;5.530;2023-10-09T11:29:32;23.30;99.90
11067;DHT22;29763;50.904;5.530;2023-10-09T11:34:50;23.40;99.90
11067;DHT22;29763;50.904;5.530;2023-10-09T11:37:20;23.40;99.90
11067;DHT22;29763;50.904;5.530;2023-10-09T11:39:56;23.40;99.90
11067;DHT22;29763;50.904;5.530;2023-10-09T11:42:24;23.40;99.90
11067;DHT22;29763;50.904;5.530;2023-10-09T11:45:27;23.40;99.90
11067;DHT22;29763;50.904;5.530;2023-10-09T11:47:58;23.50;99.90
11067;DHT22;29763;50.904;5.530;2023-10-09T11:50:51;23.50;99.90
11067;DHT22;29763;50.904;5.530;2023-10-09T11:53:18;23.60;99.90
11067;DHT22;29763;50.904;5.530;2023-10-09T11:55:51;23.70;99.90
11067;DHT22;29763;50.904;5.530;2023-10-09T11:58:24;23.60;99.90
11067;DHT22;29763;50.904;5.530;2023-10-09T12:00:51;23.80;99.90
11067;DHT22;29763;50.904;5.530;2023-10-09T12:03:20;23.90;99.90
11067;DHT22;29763;50.904;5.530;2023-10-09T12:05:49;24.00;99.90
11067;DHT22;29763;50.904;5.530;2023-10-09T12:08:14;23.90;99.90
11067;DHT22;29763;50.904;5.530;2023-10-09T12:10:42;23.80;99.90
11067;DHT22;29763;50.904;5.530;2023-10-09T12:13:08;23.80;99.90
11067;DHT22;29763;50.904;5.530;2023-10-09T12:15:34;23.70;99.90
11067;DHT22;29763;50.904;5.530;2023-10-09T12:18:06;23.70;99.90
11067;DHT22;29763;50.904;5.530;2023-10-09T12:20:43;23.70;99.90
11067;DHT22;29763;50.904;5.530;2023-10-09T12:23:22;23.80;99.90
11067;DHT22;29763;50.904;5.530;2023-10-09T12:25:51;23.90;99.90
11067;DHT22;29763;50.904;5.530;2023-10-09T12:28:22;24.00;99.90
11067;DHT22;29763;50.904;5.530;2023-10-09T12:30:49;24.10;99.90
11067;DHT22;29763;50.904;5.530;2023-10-09T12:33:18;24.00;99.90
11067;DHT22;29763;50.904;5.530;2023-10-09T12:35:54;24.00;99.90
11067;DHT22;29763;50.904;5.530;2023-10-09T12:38:26;23.90;99.90
11067;DHT22;29763;50.904;5.530;2023-10-09T12:41:05;23.80;99.90
11067;DHT22;29763;50.904;5.530;2023-10-09T12:43:43;23.70;99.90
11067;DHT22;29763;50.904;5.530;2023-10-09T12:46:09;23.70;99.90
11067;DHT22;29763;50.904;5.530;2023-10-09T12:48:35;23.50;99.90
11067;DHT22;29763;50.904;5.530;2023-10-09T12:51:06;23.50;99.90
11067;DHT22;29763;50.904;5.530;2023-10-09T12:53:33;23.50;99.90
11067;DHT22;29763;50.904;5.530;2023-10-09T12:55:59;23.40;99.90
11067;DHT22;29763;50.904;5.530;2023-10-09T12:58:26;23.30;99.90
11067;DHT22;29763;50.904;5.530;2023-10-09T13:00:54;23.30;99.90
11067;DHT22;29763;50.904;5.530;2023-10-09T13:03:20;23.20;99.90
11067;DHT22;29763;50.904;5.530;2023-10-09T13:05:49;23.10;99.90
11067;DHT22;29763;50.904;5.530;2023-10-09T13:08:22;23.00;99.90
11067;DHT22;29763;50.904;5.530;2023-10-09T13:10:52;22.90;99.90
11067;DHT22;29763;50.904;5.530;2023-10-09T13:13:33;22.90;99.90
11067;DHT22;29763;50.904;5.530;2023-10-09T13:16:20;22.80;99.90
11067;DHT22;29763;50.904;5.530;2023-10-09T13:18:56;22.70;99.90
11067;DHT22;29763;50.904;5.530;2023-10-09T13:21:28;22.60;99.90
11067;DHT22;29763;50.904;5.530;2023-10-09T13:24:04;22.60;99.90
11067;DHT22;29763;50.904;5.530;2023-10-09T13:26:31;22.50;99.90
11067;DHT22;29763;50.904;5.530;2023-10-09T13:29:00;22.50;99.90
11067;DHT22;29763;50.904;5.530;2023-10-09T13:31:28;22.50;99.90
11067;DHT22;29763;50.904;5.530;2023-10-09T13:33:57;22.50;99.90
11067;DHT22;29763;50.904;5.530;2023-10-09T13:36:26;22.40;99.90
11067;DHT22;29763;50.904;5.530;2023-10-09T13:39:03;22.50;99.90
11067;DHT22;29763;50.904;5.530;2023-10-09T13:41:58;22.50;99.90
11067;DHT22;29763;50.904;5.530;2023-10-09T13:44:29;22.60;99.90
11067;DHT22;29763;50.904;5.530;2023-10-09T13:46:58;22.60;99.90
11067;DHT22;29763;50.904;5.530;2023-10-09T13:49:24;22.70;99.90
11067;DHT22;29763;50.904;5.530;2023-10-09T13:51:59;22.80;99.90
11067;DHT22;29763;50.904;5.530;2023-10-09T13:54:25;23.00;99.90
11067;DHT22;29763;50.904;5.530;2023-10-09T13:57:01;23.10;99.90
11067;DHT22;29763;50.904;5.530;2023-10-09T13:59:35;23.30;99.90
11067;DHT22;29763;50.904;5.530;2023-10-09T14:02:02;23.30;99.90
11067;DHT22;29763;50.904;5.530;2023-10-09T14:04:34;23.50;99.90
11067;DHT22;29763;50.904;5.530;2023-10-09T14:07:00;23.50;99.90
11067;DHT22;29763;50.904;5.530;2023-10-09T14:09:28;23.50;99.90
11067;DHT22;29763;50.904;5.530;2023-10-09T14:11:57;23.40;99.90
11067;DHT22;29763;50.904;5.530;2023-10-09T14:14:37;23.30;99.90
11067;DHT22;29763;50.904;5.530;2023-10-09T14:17:10;23.10;99.90
11067;DHT22;29763;50.904;5.530;2023-10-09T14:19:42;23.10;99.90
11067;DHT22;29763;50.904;5.530;2023-10-09T14:22:17;23.10;99.90
11067;DHT22;29763;50.904;5.530;2023-10-09T14:24:48;23.10;99.90
11067;DHT22;29763;50.904;5.530;2023-10-09T14:27:20;23.10;99.90
11067;DHT22;29763;50.904;5.530;2023-10-09T14:29:46;23.10;99.90
11067;DHT22;29763;50.904;5.530;2023-10-09T14:32:12;23.10;99.90
11067;DHT22;29763;50.904;5.530;2023-10-09T14:34:44;23.00;99.90
11067;DHT22;29763;50.904;5.530;2023-10-09T14:37:20;23.00;99.90
11067;DHT22;29763;50.904;5.530;2023-10-09T14:39:49;22.90;99.90
11067;DHT22;29763;50.904;5.530;2023-10-09T14:42:18;22.80;99.90
11067;DHT22;29763;50.904;5.530;2023-10-09T14:44:45;22.70;99.90
11067;DHT22;29763;50.904;5.530;2023-10-09T14:47:11;22.60;99.90
11067;DHT22;29763;50.904;5.530;2023-10-09T14:49:40;22.50;99.90
11067;DHT22;29763;50.904;5.530;2023-10-09T14:52:13;22.30;99.90
11067;DHT22;29763;50.904;5.530;2023-10-09T14:54:42;22.10;99.90
11067;DHT22;29763;50.904;5.530;2023-10-09T14:57:10;22.10;99.90
11067;DHT22;29763;50.904;5.530;2023-10-09T14:59:37;22.00;99.90
11067;DHT22;29763;50.904;5.530;2023-10-09T15:02:03;21.80;99.90
11067;DHT22;29763;50.904;5.530;2023-10-09T15:04:31;21.70;99.90
11067;DHT22;29763;50.904;5.530;2023-10-09T15:07:02;21.60;99.90
11067;DHT22;29763;50.904;5.530;2023-10-09T15:09:35;21.60;99.90
11067;DHT22;29763;50.904;5.530;2023-10-09T15:12:02;21.50;99.90
11067;DHT22;29763;50.904;5.530;2023-10-09T15:14:27;21.40;99.90
11067;DHT22;29763;50.904;5.530;2023-10-09T15:16:59;21.30;99.90
11067;DHT22;29763;50.904;5.530;2023-10-09T15:19:26;21.30;99.90
11067;DHT22;29763;50.904;5.530;2023-10-09T15:21:58;21.30;99.90
11067;DHT22;29763;50.904;5.530;2023-10-09T15:24:26;21.40;99.90
11067;DHT22;29763;50.904;5.530;2023-10-09T15:26:55;21.60;99.90
11067;DHT22;29763;50.904;5.530;2023-10-09T15:29:24;21.70;99.90
11067;DHT22;29763;50.904;5.530;2023-10-09T15:31:57;21.90;99.90
11067;DHT22;29763;50.904;5.530;2023-10-09T15:34:37;22.10;99.90
11067;DHT22;29763;50.904;5.530;2023-10-09T15:37:03;22.10;99.90
11067;DHT22;29763;50.904;5.530;2023-10-09T15:39:29;22.10;99.90
11067;DHT22;29763;50.904;5.530;2023-10-09T15:41:58;22.10;99.90
11067;DHT22;29763;50.904;5.530;2023-10-09T15:44:24;22.10;99.90
11067;DHT22;29763;50.904;5.530;2023-10-09T15:46:51;22.10;99.90
11067;DHT22;29763;50.904;5.530;2023-10-09T15:49:28;22.00;99.90
11067;DHT22;29763;50.904;5.530;2023-10-09T15:51:55;21.80;99.90
11067;DHT22;29763;50.904;5.530;2023-10-09T15:54:21;21.70;99.90
11067;DHT22;29763;50.904;5.530;2023-10-09T15:56:48;21.50;99.90
11067;DHT22;29763;50.904;5.530;2023-10-09T15:59:13;21.50;99.90
11067;DHT22;29763;50.904;5.530;2023-10-09T16:01:42;21.50;99.90
11067;DHT22;29763;50.904;5.530;2023-10-09T16:04:09;21.50;99.90
11067;DHT22;29763;50.904;5.530;2023-10-09T16:06:36;21.50;99.90
11067;DHT22;29763;50.904;5.530;2023-10-09T16:09:05;21.40;99.90
11067;DHT22;29763;50.904;5.530;2023-10-09T16:11:32;21.30;99.90
11067;DHT22;29763;50.904;5.530;2023-10-09T16:13:59;21.30;99.90
11067;DHT22;29763;50.904;5.530;2023-10-09T16:16:29;21.10;99.90
11067;DHT22;29763;50.904;5.530;2023-10-09T16:18:55;21.00;99.90
11067;DHT22;29763;50.904;5.530;2023-10-09T16:21:25;20.90;99.90
11067;DHT22;29763;50.904;5.530;2023-10-09T16:23:51;20.70;99.90
11067;DHT22;29763;50.904;5.530;2023-10-09T16:26:20;20.60;99.90
11067;DHT22;29763;50.904;5.530;2023-10-09T16:28:50;20.50;99.90
11067;DHT22;29763;50.904;5.530;2023-10-09T16:31:17;20.40;99.90
11067;DHT22;29763;50.904;5.530;2023-10-09T16:33:47;20.20;99.90
11067;DHT22;29763;50.904;5.530;2023-10-09T16:36:13;20.00;99.90
11067;DHT22;29763;50.904;5.530;2023-10-09T16:38:39;19.90;99.90